BGBW

Narsarsuaq Airport

Narsarsuaq, Greenland
METAR BGBW 172150Z AUTO 04006KT 9999NDV FEW100/// SCT140/// BKN240/// 14/09 Q1008
Observed Flight Rules
Jul-17 @ 21:50 UTC (an hour ago)
Wind Clouds
40° at 6 knots
  • Few at 10,000' AGL
  • Scattered at 14,000' AGL
  • Broken at 24,000' AGL
Temperatures Readings
Current 14°C / 57°F
Dewpoint 9°C / 48°F
Humidity 72%
Altimeter 29.76" Hg
Pressure 1008 hPa
Elevation 26
METAR BGBW 172150Z AUTO 04006KT 9999NDV FEW100/// SCT140/// BKN240/// 14/09 Q1008
Observed Flight Rules
Jul-17 @ 21:50 UTC
(an hour ago)
Wind
40° at 6 knots
Clouds
  • Few at 10,000' AGL
  • Scattered at 14,000' AGL
  • Broken at 24,000' AGL
Temperature Dewpoint
14°C / 57°F 9°C / 48°F
Humidity Altimeter Pressure
72% 29.76" Hg 1008 hPa